Terminal Aerodrome Forecast
Issued by NWS Sterling, VA

Current Version | Previous Version | Graphics & Text | Print | Product List | Glossary On
Versions: 1 2 3 4 5 6 7 8 9 10 11 12 13 14 15 16 17 18 19 20
054
FTUS41 KLWX 221306 AAA
TAFDCA
TAF AMD
KDCA 221306Z 2213/2312 36008KT 4SM BR VCSH OVC010
     FM221800 01007KT P6SM -SHRA OVC020
     FM222200 35006KT 6SM -SHRA OVC015
     FM230000 36005KT P6SM OVC035=

USA.gov is the U.S. government's official web portal to all federal, state and local government web resources and services.